sensor_id;sensor_type;location;lat;lon;timestamp;P1;durP1;ratioP1;P2;durP2;ratioP2
16117;SDS011;8163;50.118;5.342;2022-10-20T00:00:52;12.13;;;10.60;;
16117;SDS011;8163;50.118;5.342;2022-10-20T00:03:21;14.27;;;12.77;;
16117;SDS011;8163;50.118;5.342;2022-10-20T00:05:48;16.30;;;11.20;;
16117;SDS011;8163;50.118;5.342;2022-10-20T00:08:16;11.70;;;10.50;;
16117;SDS011;8163;50.118;5.342;2022-10-20T00:10:52;13.93;;;12.20;;
16117;SDS011;8163;50.118;5.342;2022-10-20T00:13:19;10.88;;;9.20;;
16117;SDS011;8163;50.118;5.342;2022-10-20T00:15:49;12.93;;;11.55;;
16117;SDS011;8163;50.118;5.342;2022-10-20T00:18:17;14.10;;;10.45;;
16117;SDS011;8163;50.118;5.342;2022-10-20T00:20:44;13.27;;;11.93;;
16117;SDS011;8163;50.118;5.342;2022-10-20T00:23:11;13.63;;;12.32;;
16117;SDS011;8163;50.118;5.342;2022-10-20T00:25:38;13.82;;;11.07;;
16117;SDS011;8163;50.118;5.342;2022-10-20T00:28:07;14.65;;;11.73;;
16117;SDS011;8163;50.118;5.342;2022-10-20T00:30:34;9.43;;;8.52;;
16117;SDS011;8163;50.118;5.342;2022-10-20T00:33:02;12.80;;;11.43;;
16117;SDS011;8163;50.118;5.342;2022-10-20T00:35:29;11.48;;;10.38;;
16117;SDS011;8163;50.118;5.342;2022-10-20T00:37:57;12.23;;;11.02;;
16117;SDS011;8163;50.118;5.342;2022-10-20T00:40:24;9.98;;;8.98;;
16117;SDS011;8163;50.118;5.342;2022-10-20T00:42:51;13.63;;;11.13;;
16117;SDS011;8163;50.118;5.342;2022-10-20T00:45:20;14.20;;;10.48;;
16117;SDS011;8163;50.118;5.342;2022-10-20T00:47:48;11.93;;;10.70;;
16117;SDS011;8163;50.118;5.342;2022-10-20T00:50:18;16.65;;;10.70;;
16117;SDS011;8163;50.118;5.342;2022-10-20T00:52:49;13.93;;;10.50;;
16117;SDS011;8163;50.118;5.342;2022-10-20T00:55:19;14.95;;;11.55;;
16117;SDS011;8163;50.118;5.342;2022-10-20T00:57:48;13.18;;;11.85;;
16117;SDS011;8163;50.118;5.342;2022-10-20T01:00:16;12.32;;;11.05;;
16117;SDS011;8163;50.118;5.342;2022-10-20T01:02:45;11.23;;;9.65;;
16117;SDS011;8163;50.118;5.342;2022-10-20T01:05:12;10.60;;;7.97;;
16117;SDS011;8163;50.118;5.342;2022-10-20T01:07:39;12.00;;;10.45;;
16117;SDS011;8163;50.118;5.342;2022-10-20T01:10:06;14.60;;;10.45;;
16117;SDS011;8163;50.118;5.342;2022-10-20T01:12:36;13.35;;;10.55;;
16117;SDS011;8163;50.118;5.342;2022-10-20T01:15:11;12.35;;;11.15;;
16117;SDS011;8163;50.118;5.342;2022-10-20T01:17:48;10.63;;;9.52;;
16117;SDS011;8163;50.118;5.342;2022-10-20T01:20:31;13.50;;;10.98;;
16117;SDS011;8163;50.118;5.342;2022-10-20T01:23:29;12.60;;;11.30;;
16117;SDS011;8163;50.118;5.342;2022-10-20T01:26:24;10.75;;;9.00;;
16117;SDS011;8163;50.118;5.342;2022-10-20T01:29:17;11.95;;;10.50;;
16117;SDS011;8163;50.118;5.342;2022-10-20T01:31:48;12.98;;;9.52;;
16117;SDS011;8163;50.118;5.342;2022-10-20T01:34:23;13.57;;;8.80;;
16117;SDS011;8163;50.118;5.342;2022-10-20T01:36:58;13.65;;;10.38;;
16117;SDS011;8163;50.118;5.342;2022-10-20T01:39:35;12.05;;;9.85;;
16117;SDS011;8163;50.118;5.342;2022-10-20T01:42:12;13.77;;;10.32;;
16117;SDS011;8163;50.118;5.342;2022-10-20T01:44:44;13.90;;;12.50;;
16117;SDS011;8163;50.118;5.342;2022-10-20T01:47:13;11.90;;;10.40;;
16117;SDS011;8163;50.118;5.342;2022-10-20T01:49:42;13.60;;;11.07;;
16117;SDS011;8163;50.118;5.342;2022-10-20T01:52:11;11.85;;;10.65;;
16117;SDS011;8163;50.118;5.342;2022-10-20T01:54:38;9.77;;;8.82;;
16117;SDS011;8163;50.118;5.342;2022-10-20T01:57:10;12.75;;;10.13;;
16117;SDS011;8163;50.118;5.342;2022-10-20T01:59:54;12.43;;;11.23;;
16117;SDS011;8163;50.118;5.342;2022-10-20T02:02:32;11.90;;;10.00;;
16117;SDS011;8163;50.118;5.342;2022-10-20T02:05:09;11.88;;;10.45;;
16117;SDS011;8163;50.118;5.342;2022-10-20T02:07:49;12.23;;;9.55;;
16117;SDS011;8163;50.118;5.342;2022-10-20T02:10:18;9.82;;;7.93;;
16117;SDS011;8163;50.118;5.342;2022-10-20T02:12:49;11.20;;;9.40;;
16117;SDS011;8163;50.118;5.342;2022-10-20T02:15:24;13.27;;;11.35;;
16117;SDS011;8163;50.118;5.342;2022-10-20T02:17:54;10.38;;;9.35;;
16117;SDS011;8163;50.118;5.342;2022-10-20T02:20:25;13.00;;;11.60;;
16117;SDS011;8163;50.118;5.342;2022-10-20T02:22:53;13.32;;;9.77;;
16117;SDS011;8163;50.118;5.342;2022-10-20T02:25:21;11.65;;;10.25;;
16117;SDS011;8163;50.118;5.342;2022-10-20T02:27:49;13.18;;;9.13;;
16117;SDS011;8163;50.118;5.342;2022-10-20T02:30:18;12.90;;;10.43;;
16117;SDS011;8163;50.118;5.342;2022-10-20T02:32:48;11.68;;;9.65;;
16117;SDS011;8163;50.118;5.342;2022-10-20T02:35:18;12.98;;;11.68;;
16117;SDS011;8163;50.118;5.342;2022-10-20T02:37:47;13.52;;;11.18;;
16117;SDS011;8163;50.118;5.342;2022-10-20T02:40:14;17.30;;;10.70;;
16117;SDS011;8163;50.118;5.342;2022-10-20T02:42:41;12.55;;;9.90;;
16117;SDS011;8163;50.118;5.342;2022-10-20T02:45:09;13.68;;;12.20;;
16117;SDS011;8163;50.118;5.342;2022-10-20T02:47:36;12.65;;;9.95;;
16117;SDS011;8163;50.118;5.342;2022-10-20T02:50:05;17.30;;;11.90;;
16117;SDS011;8163;50.118;5.342;2022-10-20T02:52:33;12.95;;;11.57;;
16117;SDS011;8163;50.118;5.342;2022-10-20T02:55:03;12.48;;;9.90;;
16117;SDS011;8163;50.118;5.342;2022-10-20T02:57:30;12.80;;;9.95;;
16117;SDS011;8163;50.118;5.342;2022-10-20T02:59:57;15.55;;;9.15;;
16117;SDS011;8163;50.118;5.342;2022-10-20T03:02:24;13.48;;;11.50;;
16117;SDS011;8163;50.118;5.342;2022-10-20T03:04:51;16.10;;;11.68;;
16117;SDS011;8163;50.118;5.342;2022-10-20T03:07:19;12.57;;;11.02;;
16117;SDS011;8163;50.118;5.342;2022-10-20T03:09:47;20.25;;;11.43;;
16117;SDS011;8163;50.118;5.342;2022-10-20T03:12:14;12.18;;;10.18;;
16117;SDS011;8163;50.118;5.342;2022-10-20T03:14:41;13.13;;;10.60;;
16117;SDS011;8163;50.118;5.342;2022-10-20T03:17:09;13.85;;;9.10;;
16117;SDS011;8163;50.118;5.342;2022-10-20T03:19:36;15.23;;;11.43;;
16117;SDS011;8163;50.118;5.342;2022-10-20T03:22:03;11.50;;;10.05;;
16117;SDS011;8163;50.118;5.342;2022-10-20T03:24:32;9.48;;;8.55;;
16117;SDS011;8163;50.118;5.342;2022-10-20T03:26:58;13.68;;;9.77;;
16117;SDS011;8163;50.118;5.342;2022-10-20T03:29:25;12.50;;;9.05;;
16117;SDS011;8163;50.118;5.342;2022-10-20T03:31:52;12.15;;;10.68;;
16117;SDS011;8163;50.118;5.342;2022-10-20T03:34:19;13.73;;;9.68;;
16117;SDS011;8163;50.118;5.342;2022-10-20T03:36:46;12.32;;;11.07;;
16117;SDS011;8163;50.118;5.342;2022-10-20T03:39:13;15.55;;;11.02;;
16117;SDS011;8163;50.118;5.342;2022-10-20T03:41:41;14.52;;;9.88;;
16117;SDS011;8163;50.118;5.342;2022-10-20T03:44:08;13.43;;;12.07;;
16117;SDS011;8163;50.118;5.342;2022-10-20T03:46:36;13.93;;;10.63;;
16117;SDS011;8163;50.118;5.342;2022-10-20T03:49:03;12.95;;;10.52;;
16117;SDS011;8163;50.118;5.342;2022-10-20T03:51:30;15.90;;;10.23;;
16117;SDS011;8163;50.118;5.342;2022-10-20T03:53:57;14.57;;;10.88;;
16117;SDS011;8163;50.118;5.342;2022-10-20T03:56:24;15.55;;;11.50;;
16117;SDS011;8163;50.118;5.342;2022-10-20T03:58:52;15.07;;;10.88;;
16117;SDS011;8163;50.118;5.342;2022-10-20T04:01:20;13.32;;;10.88;;
16117;SDS011;8163;50.118;5.342;2022-10-20T04:03:49;12.65;;;11.23;;
16117;SDS011;8163;50.118;5.342;2022-10-20T04:06:16;11.77;;;10.57;;
16117;SDS011;8163;50.118;5.342;2022-10-20T04:08:43;11.50;;;9.73;;
16117;SDS011;8163;50.118;5.342;2022-10-20T04:11:10;15.57;;;11.13;;
16117;SDS011;8163;50.118;5.342;2022-10-20T04:13:38;11.15;;;8.30;;
16117;SDS011;8163;50.118;5.342;2022-10-20T04:16:06;12.25;;;10.88;;
16117;SDS011;8163;50.118;5.342;2022-10-20T04:18:33;12.65;;;10.02;;
16117;SDS011;8163;50.118;5.342;2022-10-20T04:21:00;14.57;;;9.15;;
16117;SDS011;8163;50.118;5.342;2022-10-20T04:23:27;10.70;;;9.57;;
16117;SDS011;8163;50.118;5.342;2022-10-20T04:25:54;11.02;;;9.18;;
16117;SDS011;8163;50.118;5.342;2022-10-20T04:28:21;11.77;;;9.68;;
16117;SDS011;8163;50.118;5.342;2022-10-20T04:30:48;10.27;;;9.13;;
16117;SDS011;8163;50.118;5.342;2022-10-20T04:33:16;13.00;;;8.77;;
16117;SDS011;8163;50.118;5.342;2022-10-20T04:35:43;15.75;;;10.43;;
16117;SDS011;8163;50.118;5.342;2022-10-20T04:38:10;16.23;;;9.57;;
16117;SDS011;8163;50.118;5.342;2022-10-20T04:40:37;12.30;;;8.50;;
16117;SDS011;8163;50.118;5.342;2022-10-20T04:43:04;11.43;;;8.32;;
16117;SDS011;8163;50.118;5.342;2022-10-20T04:45:32;9.55;;;8.55;;
16117;SDS011;8163;50.118;5.342;2022-10-20T04:47:59;12.07;;;8.43;;
16117;SDS011;8163;50.118;5.342;2022-10-20T04:50:28;10.02;;;9.02;;
16117;SDS011;8163;50.118;5.342;2022-10-20T04:52:57;9.80;;;8.90;;
16117;SDS011;8163;50.118;5.342;2022-10-20T04:55:24;10.55;;;5.97;;
16117;SDS011;8163;50.118;5.342;2022-10-20T04:57:51;10.52;;;9.43;;
16117;SDS011;8163;50.118;5.342;2022-10-20T05:00:18;12.65;;;8.57;;
16117;SDS011;8163;50.118;5.342;2022-10-20T05:02:45;12.60;;;9.05;;
16117;SDS011;8163;50.118;5.342;2022-10-20T05:05:12;13.02;;;8.43;;
16117;SDS011;8163;50.118;5.342;2022-10-20T05:07:40;6.97;;;6.25;;
16117;SDS011;8163;50.118;5.342;2022-10-20T05:10:07;10.02;;;6.30;;
16117;SDS011;8163;50.118;5.342;2022-10-20T05:12:34;11.07;;;9.13;;
16117;SDS011;8163;50.118;5.342;2022-10-20T05:15:01;10.95;;;9.25;;
16117;SDS011;8163;50.118;5.342;2022-10-20T05:17:29;11.25;;;8.68;;
16117;SDS011;8163;50.118;5.342;2022-10-20T05:19:56;11.45;;;8.70;;
16117;SDS011;8163;50.118;5.342;2022-10-20T05:22:23;11.52;;;8.77;;
16117;SDS011;8163;50.118;5.342;2022-10-20T05:24:51;13.07;;;10.27;;
16117;SDS011;8163;50.118;5.342;2022-10-20T05:27:18;9.65;;;6.55;;
16117;SDS011;8163;50.118;5.342;2022-10-20T05:29:46;14.25;;;9.88;;
16117;SDS011;8163;50.118;5.342;2022-10-20T05:32:16;16.23;;;10.50;;
16117;SDS011;8163;50.118;5.342;2022-10-20T05:34:44;18.00;;;9.27;;
16117;SDS011;8163;50.118;5.342;2022-10-20T05:37:11;12.05;;;10.77;;
16117;SDS011;8163;50.118;5.342;2022-10-20T05:39:38;14.48;;;11.35;;
16117;SDS011;8163;50.118;5.342;2022-10-20T05:42:06;18.27;;;11.57;;
16117;SDS011;8163;50.118;5.342;2022-10-20T05:44:33;14.60;;;11.48;;
16117;SDS011;8163;50.118;5.342;2022-10-20T05:47:00;16.42;;;11.75;;
16117;SDS011;8163;50.118;5.342;2022-10-20T05:49:27;14.80;;;12.23;;
16117;SDS011;8163;50.118;5.342;2022-10-20T05:51:54;18.55;;;10.95;;
16117;SDS011;8163;50.118;5.342;2022-10-20T05:54:21;12.90;;;9.98;;
16117;SDS011;8163;50.118;5.342;2022-10-20T05:56:47;12.30;;;9.95;;
16117;SDS011;8163;50.118;5.342;2022-10-20T05:59:16;11.52;;;9.45;;
16117;SDS011;8163;50.118;5.342;2022-10-20T06:01:42;16.55;;;10.05;;
16117;SDS011;8163;50.118;5.342;2022-10-20T06:04:13;13.30;;;7.50;;
16117;SDS011;8163;50.118;5.342;2022-10-20T06:06:41;12.27;;;8.90;;
16117;SDS011;8163;50.118;5.342;2022-10-20T06:09:08;17.35;;;10.23;;
16117;SDS011;8163;50.118;5.342;2022-10-20T06:11:35;16.75;;;9.82;;
16117;SDS011;8163;50.118;5.342;2022-10-20T06:14:03;20.33;;;11.02;;
16117;SDS011;8163;50.118;5.342;2022-10-20T06:16:31;8.57;;;6.97;;
16117;SDS011;8163;50.118;5.342;2022-10-20T06:18:58;12.93;;;9.93;;
16117;SDS011;8163;50.118;5.342;2022-10-20T06:21:27;15.88;;;11.20;;
16117;SDS011;8163;50.118;5.342;2022-10-20T06:23:56;10.55;;;7.45;;
16117;SDS011;8163;50.118;5.342;2022-10-20T06:26:24;14.90;;;10.32;;
16117;SDS011;8163;50.118;5.342;2022-10-20T06:28:54;18.45;;;9.50;;
16117;SDS011;8163;50.118;5.342;2022-10-20T06:31:22;14.73;;;9.05;;
16117;SDS011;8163;50.118;5.342;2022-10-20T06:33:52;17.05;;;10.30;;
16117;SDS011;8163;50.118;5.342;2022-10-20T06:36:20;17.95;;;9.77;;
16117;SDS011;8163;50.118;5.342;2022-10-20T06:38:50;13.70;;;9.00;;
16117;SDS011;8163;50.118;5.342;2022-10-20T06:41:18;13.05;;;8.25;;
16117;SDS011;8163;50.118;5.342;2022-10-20T06:43:45;12.25;;;10.18;;
16117;SDS011;8163;50.118;5.342;2022-10-20T06:46:13;16.40;;;10.15;;
16117;SDS011;8163;50.118;5.342;2022-10-20T06:48:41;15.90;;;9.18;;
16117;SDS011;8163;50.118;5.342;2022-10-20T06:51:11;14.77;;;9.32;;
16117;SDS011;8163;50.118;5.342;2022-10-20T06:53:39;14.30;;;8.90;;
16117;SDS011;8163;50.118;5.342;2022-10-20T06:56:07;12.88;;;8.25;;
16117;SDS011;8163;50.118;5.342;2022-10-20T06:58:38;13.73;;;8.35;;
16117;SDS011;8163;50.118;5.342;2022-10-20T07:01:07;11.43;;;8.13;;
16117;SDS011;8163;50.118;5.342;2022-10-20T07:03:37;10.30;;;8.48;;
16117;SDS011;8163;50.118;5.342;2022-10-20T07:06:04;16.27;;;8.70;;
16117;SDS011;8163;50.118;5.342;2022-10-20T07:08:34;11.43;;;7.63;;
16117;SDS011;8163;50.118;5.342;2022-10-20T07:11:03;10.82;;;7.22;;
16117;SDS011;8163;50.118;5.342;2022-10-20T07:13:32;12.88;;;8.75;;
16117;SDS011;8163;50.118;5.342;2022-10-20T07:16:00;12.48;;;8.55;;
16117;SDS011;8163;50.118;5.342;2022-10-20T07:18:27;15.70;;;8.50;;
16117;SDS011;8163;50.118;5.342;2022-10-20T07:20:55;10.25;;;8.48;;
16117;SDS011;8163;50.118;5.342;2022-10-20T07:23:23;14.15;;;9.63;;
16117;SDS011;8163;50.118;5.342;2022-10-20T07:25:51;17.27;;;9.07;;
16117;SDS011;8163;50.118;5.342;2022-10-20T07:28:25;15.95;;;9.25;;
16117;SDS011;8163;50.118;5.342;2022-10-20T07:30:51;17.85;;;9.20;;
16117;SDS011;8163;50.118;5.342;2022-10-20T07:33:18;12.25;;;8.48;;
16117;SDS011;8163;50.118;5.342;2022-10-20T07:35:45;18.10;;;9.32;;
16117;SDS011;8163;50.118;5.342;2022-10-20T07:38:13;12.20;;;9.32;;
16117;SDS011;8163;50.118;5.342;2022-10-20T07:40:40;10.23;;;8.07;;
16117;SDS011;8163;50.118;5.342;2022-10-20T07:43:08;17.92;;;9.55;;
16117;SDS011;8163;50.118;5.342;2022-10-20T07:45:35;21.23;;;9.60;;
16117;SDS011;8163;50.118;5.342;2022-10-20T07:48:02;11.57;;;9.15;;
16117;SDS011;8163;50.118;5.342;2022-10-20T07:50:31;14.68;;;8.95;;
16117;SDS011;8163;50.118;5.342;2022-10-20T07:52:58;14.07;;;8.75;;
16117;SDS011;8163;50.118;5.342;2022-10-20T07:55:25;13.20;;;7.38;;
16117;SDS011;8163;50.118;5.342;2022-10-20T07:57:51;13.35;;;8.68;;
16117;SDS011;8163;50.118;5.342;2022-10-20T08:00:20;14.38;;;8.30;;
16117;SDS011;8163;50.118;5.342;2022-10-20T08:02:47;13.48;;;8.48;;
16117;SDS011;8163;50.118;5.342;2022-10-20T08:05:14;17.27;;;8.50;;
16117;SDS011;8163;50.118;5.342;2022-10-20T08:07:41;12.77;;;7.90;;
16117;SDS011;8163;50.118;5.342;2022-10-20T08:10:08;12.25;;;6.80;;
16117;SDS011;8163;50.118;5.342;2022-10-20T08:12:35;15.50;;;7.30;;
16117;SDS011;8163;50.118;5.342;2022-10-20T08:15:02;9.57;;;6.68;;
16117;SDS011;8163;50.118;5.342;2022-10-20T08:17:31;13.13;;;7.53;;
16117;SDS011;8163;50.118;5.342;2022-10-20T08:19:58;12.45;;;7.32;;
16117;SDS011;8163;50.118;5.342;2022-10-20T08:22:25;12.55;;;8.20;;
16117;SDS011;8163;50.118;5.342;2022-10-20T08:24:52;8.88;;;7.47;;
16117;SDS011;8163;50.118;5.342;2022-10-20T08:27:19;10.88;;;7.75;;
16117;SDS011;8163;50.118;5.342;2022-10-20T08:29:46;9.55;;;7.32;;
16117;SDS011;8163;50.118;5.342;2022-10-20T08:32:12;8.70;;;7.70;;
16117;SDS011;8163;50.118;5.342;2022-10-20T08:34:41;13.52;;;9.13;;
16117;SDS011;8163;50.118;5.342;2022-10-20T08:37:08;11.98;;;9.25;;
16117;SDS011;8163;50.118;5.342;2022-10-20T08:39:35;11.07;;;9.50;;
16117;SDS011;8163;50.118;5.342;2022-10-20T08:42:02;10.93;;;9.30;;
16117;SDS011;8163;50.118;5.342;2022-10-20T08:44:30;12.38;;;9.25;;
16117;SDS011;8163;50.118;5.342;2022-10-20T08:46:58;14.70;;;10.40;;
16117;SDS011;8163;50.118;5.342;2022-10-20T08:49:28;11.50;;;8.73;;
16117;SDS011;8163;50.118;5.342;2022-10-20T08:51:59;17.02;;;10.55;;
16117;SDS011;8163;50.118;5.342;2022-10-20T08:54:26;10.68;;;9.32;;
16117;SDS011;8163;50.118;5.342;2022-10-20T08:56:53;14.13;;;10.32;;
16117;SDS011;8163;50.118;5.342;2022-10-20T08:59:23;14.48;;;9.52;;
16117;SDS011;8163;50.118;5.342;2022-10-20T09:01:53;12.75;;;9.40;;
16117;SDS011;8163;50.118;5.342;2022-10-20T09:04:21;13.35;;;10.20;;
16117;SDS011;8163;50.118;5.342;2022-10-20T09:06:51;14.40;;;9.80;;
16117;SDS011;8163;50.118;5.342;2022-10-20T09:09:22;13.63;;;9.93;;
16117;SDS011;8163;50.118;5.342;2022-10-20T09:11:50;14.30;;;9.55;;
16117;SDS011;8163;50.118;5.342;2022-10-20T09:14:21;13.98;;;9.63;;
16117;SDS011;8163;50.118;5.342;2022-10-20T09:16:48;16.63;;;9.20;;
16117;SDS011;8163;50.118;5.342;2022-10-20T09:19:15;17.65;;;9.57;;
16117;SDS011;8163;50.118;5.342;2022-10-20T09:21:45;15.73;;;9.60;;
16117;SDS011;8163;50.118;5.342;2022-10-20T09:24:16;10.75;;;9.10;;
16117;SDS011;8163;50.118;5.342;2022-10-20T09:26:48;12.90;;;9.30;;
16117;SDS011;8163;50.118;5.342;2022-10-20T09:29:17;13.90;;;9.38;;
16117;SDS011;8163;50.118;5.342;2022-10-20T09:31:46;14.57;;;8.13;;
16117;SDS011;8163;50.118;5.342;2022-10-20T09:34:21;13.18;;;8.20;;
16117;SDS011;8163;50.118;5.342;2022-10-20T09:36:50;13.90;;;7.25;;
16117;SDS011;8163;50.118;5.342;2022-10-20T09:39:21;13.13;;;9.18;;
16117;SDS011;8163;50.118;5.342;2022-10-20T09:41:58;9.73;;;7.57;;
16117;SDS011;8163;50.118;5.342;2022-10-20T09:44:27;12.02;;;7.40;;
16117;SDS011;8163;50.118;5.342;2022-10-20T09:46:57;11.15;;;7.55;;
16117;SDS011;8163;50.118;5.342;2022-10-20T09:49:26;14.27;;;6.80;;
16117;SDS011;8163;50.118;5.342;2022-10-20T09:51:57;12.50;;;7.40;;
16117;SDS011;8163;50.118;5.342;2022-10-20T09:54:26;15.25;;;8.70;;
16117;SDS011;8163;50.118;5.342;2022-10-20T09:57:03;11.35;;;7.03;;
16117;SDS011;8163;50.118;5.342;2022-10-20T09:59:33;9.40;;;7.43;;
16117;SDS011;8163;50.118;5.342;2022-10-20T10:02:08;9.05;;;6.68;;
16117;SDS011;8163;50.118;5.342;2022-10-20T10:05:11;11.32;;;7.13;;
16117;SDS011;8163;50.118;5.342;2022-10-20T10:07:40;7.43;;;5.85;;
16117;SDS011;8163;50.118;5.342;2022-10-20T10:10:23;10.57;;;5.03;;
16117;SDS011;8163;50.118;5.342;2022-10-20T10:12:55;10.05;;;5.43;;
16117;SDS011;8163;50.118;5.342;2022-10-20T10:15:25;6.13;;;5.53;;
16117;SDS011;8163;50.118;5.342;2022-10-20T10:17:55;6.63;;;4.45;;
16117;SDS011;8163;50.118;5.342;2022-10-20T10:20:27;5.35;;;4.22;;
16117;SDS011;8163;50.118;5.342;2022-10-20T10:23:15;8.00;;;4.45;;
16117;SDS011;8163;50.118;5.342;2022-10-20T10:25:47;6.60;;;4.15;;
16117;SDS011;8163;50.118;5.342;2022-10-20T10:28:26;5.70;;;3.60;;
16117;SDS011;8163;50.118;5.342;2022-10-20T10:31:07;5.15;;;4.32;;
16117;SDS011;8163;50.118;5.342;2022-10-20T10:33:43;8.15;;;4.03;;
16117;SDS011;8163;50.118;5.342;2022-10-20T10:36:11;7.85;;;3.47;;
16117;SDS011;8163;50.118;5.342;2022-10-20T10:38:44;6.90;;;3.85;;
16117;SDS011;8163;50.118;5.342;2022-10-20T10:41:13;6.82;;;3.25;;
16117;SDS011;8163;50.118;5.342;2022-10-20T10:43:48;5.50;;;3.10;;
16117;SDS011;8163;50.118;5.342;2022-10-20T10:46:25;5.95;;;3.92;;
16117;SDS011;8163;50.118;5.342;2022-10-20T10:49:14;7.95;;;3.38;;
16117;SDS011;8163;50.118;5.342;2022-10-20T10:52:05;6.88;;;3.13;;
16117;SDS011;8163;50.118;5.342;2022-10-20T10:54:45;4.97;;;3.13;;
16117;SDS011;8163;50.118;5.342;2022-10-20T10:57:23;6.60;;;2.80;;
16117;SDS011;8163;50.118;5.342;2022-10-20T10:59:58;6.57;;;3.08;;
16117;SDS011;8163;50.118;5.342;2022-10-20T11:02:38;7.03;;;3.00;;
16117;SDS011;8163;50.118;5.342;2022-10-20T11:05:23;5.10;;;2.78;;
16117;SDS011;8163;50.118;5.342;2022-10-20T11:08:07;5.53;;;2.58;;
16117;SDS011;8163;50.118;5.342;2022-10-20T11:10:45;7.07;;;3.08;;
16117;SDS011;8163;50.118;5.342;2022-10-20T11:13:21;5.03;;;2.92;;
16117;SDS011;8163;50.118;5.342;2022-10-20T11:15:59;4.18;;;2.80;;
16117;SDS011;8163;50.118;5.342;2022-10-20T11:21:45;6.82;;;3.38;;
16117;SDS011;8163;50.118;5.342;2022-10-20T11:24:25;6.68;;;3.50;;
16117;SDS011;8163;50.118;5.342;2022-10-20T11:27:00;8.05;;;3.35;;
16117;SDS011;8163;50.118;5.342;2022-10-20T11:29:35;9.15;;;3.25;;
16117;SDS011;8163;50.118;5.342;2022-10-20T11:32:09;6.90;;;3.63;;
16117;SDS011;8163;50.118;5.342;2022-10-20T11:34:45;3.40;;;3.03;;
16117;SDS011;8163;50.118;5.342;2022-10-20T11:37:20;6.50;;;3.42;;
16117;SDS011;8163;50.118;5.342;2022-10-20T11:39:51;7.15;;;3.40;;
16117;SDS011;8163;50.118;5.342;2022-10-20T11:42:25;6.13;;;3.42;;
16117;SDS011;8163;50.118;5.342;2022-10-20T11:44:57;4.63;;;3.55;;
16117;SDS011;8163;50.118;5.342;2022-10-20T11:47:29;4.63;;;2.80;;
16117;SDS011;8163;50.118;5.342;2022-10-20T11:50:02;7.57;;;2.80;;
16117;SDS011;8163;50.118;5.342;2022-10-20T11:55:42;5.70;;;3.00;;
16117;SDS011;8163;50.118;5.342;2022-10-20T11:58:32;8.57;;;3.25;;
16117;SDS011;8163;50.118;5.342;2022-10-20T12:01:16;6.85;;;3.20;;
16117;SDS011;8163;50.118;5.342;2022-10-20T12:04:15;6.93;;;3.15;;
16117;SDS011;8163;50.118;5.342;2022-10-20T12:10:23;8.18;;;2.95;;
16117;SDS011;8163;50.118;5.342;2022-10-20T12:13:00;6.35;;;2.80;;
16117;SDS011;8163;50.118;5.342;2022-10-20T12:15:43;8.73;;;3.55;;
16117;SDS011;8163;50.118;5.342;2022-10-20T12:18:14;8.23;;;3.03;;
16117;SDS011;8163;50.118;5.342;2022-10-20T12:20:51;4.45;;;2.60;;
16117;SDS011;8163;50.118;5.342;2022-10-20T12:29:48;4.70;;;2.83;;
16117;SDS011;8163;50.118;5.342;2022-10-20T12:38:22;3.60;;;2.65;;
16117;SDS011;8163;50.118;5.342;2022-10-20T12:40:53;5.90;;;2.78;;
16117;SDS011;8163;50.118;5.342;2022-10-20T12:43:24;5.68;;;2.78;;
16117;SDS011;8163;50.118;5.342;2022-10-20T12:46:15;4.75;;;3.00;;
16117;SDS011;8163;50.118;5.342;2022-10-20T12:48:46;4.47;;;2.45;;
16117;SDS011;8163;50.118;5.342;2022-10-20T12:51:32;6.82;;;3.00;;
16117;SDS011;8163;50.118;5.342;2022-10-20T12:54:07;5.55;;;2.88;;
16117;SDS011;8163;50.118;5.342;2022-10-20T12:56:45;7.63;;;2.95;;
16117;SDS011;8163;50.118;5.342;2022-10-20T13:05:39;7.75;;;2.97;;
16117;SDS011;8163;50.118;5.342;2022-10-20T13:08:20;5.65;;;3.00;;
16117;SDS011;8163;50.118;5.342;2022-10-20T13:10:56;7.10;;;3.00;;
16117;SDS011;8163;50.118;5.342;2022-10-20T13:14:07;3.53;;;2.70;;
16117;SDS011;8163;50.118;5.342;2022-10-20T13:16:45;5.97;;;3.15;;
16117;SDS011;8163;50.118;5.342;2022-10-20T13:19:16;6.70;;;2.95;;
16117;SDS011;8163;50.118;5.342;2022-10-20T13:21:45;5.68;;;3.00;;
16117;SDS011;8163;50.118;5.342;2022-10-20T13:24:14;5.18;;;2.95;;
16117;SDS011;8163;50.118;5.342;2022-10-20T13:26:50;4.72;;;2.63;;
16117;SDS011;8163;50.118;5.342;2022-10-20T13:29:23;5.60;;;3.15;;
16117;SDS011;8163;50.118;5.342;2022-10-20T13:31:56;6.88;;;2.92;;
16117;SDS011;8163;50.118;5.342;2022-10-20T13:34:31;7.57;;;2.75;;
16117;SDS011;8163;50.118;5.342;2022-10-20T13:37:19;6.60;;;2.65;;
16117;SDS011;8163;50.118;5.342;2022-10-20T13:39:57;5.45;;;3.47;;
16117;SDS011;8163;50.118;5.342;2022-10-20T13:42:39;6.00;;;2.83;;
16117;SDS011;8163;50.118;5.342;2022-10-20T13:45:17;4.35;;;2.97;;
16117;SDS011;8163;50.118;5.342;2022-10-20T13:47:54;8.63;;;3.05;;
16117;SDS011;8163;50.118;5.342;2022-10-20T13:50:31;4.90;;;3.38;;
16117;SDS011;8163;50.118;5.342;2022-10-20T13:53:02;7.13;;;2.80;;
16117;SDS011;8163;50.118;5.342;2022-10-20T13:55:51;8.43;;;3.08;;
16117;SDS011;8163;50.118;5.342;2022-10-20T13:58:25;4.22;;;2.70;;
16117;SDS011;8163;50.118;5.342;2022-10-20T14:00:57;9.32;;;3.20;;
16117;SDS011;8163;50.118;5.342;2022-10-20T14:03:26;7.22;;;2.72;;
16117;SDS011;8163;50.118;5.342;2022-10-20T14:05:53;7.20;;;2.58;;
16117;SDS011;8163;50.118;5.342;2022-10-20T14:08:20;8.25;;;2.55;;
16117;SDS011;8163;50.118;5.342;2022-10-20T14:10:48;4.72;;;3.13;;
16117;SDS011;8163;50.118;5.342;2022-10-20T14:13:17;7.55;;;2.70;;
16117;SDS011;8163;50.118;5.342;2022-10-20T14:15:49;4.57;;;2.90;;
16117;SDS011;8163;50.118;5.342;2022-10-20T14:18:20;8.98;;;3.45;;
16117;SDS011;8163;50.118;5.342;2022-10-20T14:20:52;4.18;;;2.65;;
16117;SDS011;8163;50.118;5.342;2022-10-20T14:23:21;5.93;;;3.15;;
16117;SDS011;8163;50.118;5.342;2022-10-20T14:25:49;11.02;;;2.95;;
16117;SDS011;8163;50.118;5.342;2022-10-20T14:28:18;7.38;;;2.70;;
16117;SDS011;8163;50.118;5.342;2022-10-20T14:30:49;6.55;;;2.53;;
16117;SDS011;8163;50.118;5.342;2022-10-20T14:33:17;6.70;;;2.65;;
16117;SDS011;8163;50.118;5.342;2022-10-20T14:35:45;2.90;;;2.35;;
16117;SDS011;8163;50.118;5.342;2022-10-20T14:38:16;4.07;;;2.33;;
16117;SDS011;8163;50.118;5.342;2022-10-20T14:40:49;3.95;;;2.60;;
16117;SDS011;8163;50.118;5.342;2022-10-20T14:43:17;4.93;;;3.13;;
16117;SDS011;8163;50.118;5.342;2022-10-20T14:45:51;7.47;;;2.95;;
16117;SDS011;8163;50.118;5.342;2022-10-20T14:48:21;8.35;;;3.53;;
16117;SDS011;8163;50.118;5.342;2022-10-20T14:50:49;10.60;;;3.38;;
16117;SDS011;8163;50.118;5.342;2022-10-20T14:53:24;6.40;;;2.90;;
16117;SDS011;8163;50.118;5.342;2022-10-20T14:55:55;6.13;;;2.90;;
16117;SDS011;8163;50.118;5.342;2022-10-20T14:58:37;10.18;;;4.25;;
16117;SDS011;8163;50.118;5.342;2022-10-20T15:37:28;7.47;;;3.72;;
16117;SDS011;8163;50.118;5.342;2022-10-20T15:39:55;8.75;;;3.70;;
16117;SDS011;8163;50.118;5.342;2022-10-20T15:42:22;13.45;;;3.88;;
16117;SDS011;8163;50.118;5.342;2022-10-20T15:44:49;10.18;;;3.78;;
16117;SDS011;8163;50.118;5.342;2022-10-20T15:47:16;9.85;;;3.20;;
16117;SDS011;8163;50.118;5.342;2022-10-20T15:49:43;6.93;;;3.60;;
16117;SDS011;8163;50.118;5.342;2022-10-20T15:52:11;8.60;;;3.97;;
16117;SDS011;8163;50.118;5.342;2022-10-20T15:54:39;7.22;;;3.97;;
16117;SDS011;8163;50.118;5.342;2022-10-20T15:57:06;5.80;;;3.92;;
16117;SDS011;8163;50.118;5.342;2022-10-20T15:59:33;16.58;;;4.53;;
16117;SDS011;8163;50.118;5.342;2022-10-20T16:02:01;15.20;;;4.10;;
16117;SDS011;8163;50.118;5.342;2022-10-20T16:04:28;9.07;;;3.63;;
16117;SDS011;8163;50.118;5.342;2022-10-20T16:06:56;9.45;;;4.35;;
16117;SDS011;8163;50.118;5.342;2022-10-20T16:09:24;12.23;;;4.70;;
16117;SDS011;8163;50.118;5.342;2022-10-20T16:11:52;11.07;;;4.90;;
16117;SDS011;8163;50.118;5.342;2022-10-20T16:14:19;8.57;;;3.45;;